sensor_id;sensor_type;location;lat;lon;timestamp;P1;durP1;ratioP1;P2;durP2;ratioP2
30303;SDS011;17112;48.636;10.152;2023-03-23T00:00:45;6.18;;;1.85;;
30303;SDS011;17112;48.636;10.152;2023-03-23T00:03:10;10.32;;;1.98;;
30303;SDS011;17112;48.636;10.152;2023-03-23T00:05:37;4.65;;;2.10;;
30303;SDS011;17112;48.636;10.152;2023-03-23T00:08:06;5.75;;;2.10;;
30303;SDS011;17112;48.636;10.152;2023-03-23T00:10:34;4.03;;;1.98;;
30303;SDS011;17112;48.636;10.152;2023-03-23T00:13:00;3.33;;;1.90;;
30303;SDS011;17112;48.636;10.152;2023-03-23T00:15:29;6.63;;;2.28;;
30303;SDS011;17112;48.636;10.152;2023-03-23T00:17:58;4.70;;;2.22;;
30303;SDS011;17112;48.636;10.152;2023-03-23T00:20:27;3.15;;;1.90;;
30303;SDS011;17112;48.636;10.152;2023-03-23T00:22:54;10.65;;;2.60;;
30303;SDS011;17112;48.636;10.152;2023-03-23T00:25:24;5.57;;;2.05;;
30303;SDS011;17112;48.636;10.152;2023-03-23T00:27:50;2.60;;;1.77;;
30303;SDS011;17112;48.636;10.152;2023-03-23T00:30:16;8.07;;;1.90;;
30303;SDS011;17112;48.636;10.152;2023-03-23T00:32:42;4.85;;;1.90;;
30303;SDS011;17112;48.636;10.152;2023-03-23T00:35:08;5.55;;;1.90;;
30303;SDS011;17112;48.636;10.152;2023-03-23T00:37:34;4.82;;;1.92;;
30303;SDS011;17112;48.636;10.152;2023-03-23T00:40:00;3.65;;;1.80;;
30303;SDS011;17112;48.636;10.152;2023-03-23T00:42:31;3.97;;;1.90;;
30303;SDS011;17112;48.636;10.152;2023-03-23T00:45:01;4.90;;;2.30;;
30303;SDS011;17112;48.636;10.152;2023-03-23T00:47:31;10.25;;;1.90;;
30303;SDS011;17112;48.636;10.152;2023-03-23T00:50:01;4.00;;;1.92;;
30303;SDS011;17112;48.636;10.152;2023-03-23T00:52:27;4.65;;;1.90;;
30303;SDS011;17112;48.636;10.152;2023-03-23T00:54:53;2.88;;;2.30;;
30303;SDS011;17112;48.636;10.152;2023-03-23T00:57:19;2.25;;;2.00;;
30303;SDS011;17112;48.636;10.152;2023-03-23T00:59:44;10.15;;;2.00;;
30303;SDS011;17112;48.636;10.152;2023-03-23T01:02:10;3.63;;;2.05;;
30303;SDS011;17112;48.636;10.152;2023-03-23T01:04:37;5.57;;;1.90;;
30303;SDS011;17112;48.636;10.152;2023-03-23T01:07:04;4.05;;;2.00;;
30303;SDS011;17112;48.636;10.152;2023-03-23T01:09:29;8.95;;;2.30;;
30303;SDS011;17112;48.636;10.152;2023-03-23T01:11:55;2.65;;;2.00;;
30303;SDS011;17112;48.636;10.152;2023-03-23T01:14:21;3.90;;;2.28;;
30303;SDS011;17112;48.636;10.152;2023-03-23T01:16:47;3.10;;;2.20;;
30303;SDS011;17112;48.636;10.152;2023-03-23T01:19:12;3.60;;;2.35;;
30303;SDS011;17112;48.636;10.152;2023-03-23T01:21:40;10.10;;;2.58;;
30303;SDS011;17112;48.636;10.152;2023-03-23T01:24:06;5.78;;;2.08;;
30303;SDS011;17112;48.636;10.152;2023-03-23T01:26:32;5.28;;;2.05;;
30303;SDS011;17112;48.636;10.152;2023-03-23T01:28:57;3.92;;;2.22;;
30303;SDS011;17112;48.636;10.152;2023-03-23T01:31:24;4.55;;;2.10;;
30303;SDS011;17112;48.636;10.152;2023-03-23T01:33:51;3.03;;;2.10;;
30303;SDS011;17112;48.636;10.152;2023-03-23T01:36:18;3.70;;;2.40;;
30303;SDS011;17112;48.636;10.152;2023-03-23T01:38:46;2.28;;;1.73;;
30303;SDS011;17112;48.636;10.152;2023-03-23T01:41:13;7.20;;;2.25;;
30303;SDS011;17112;48.636;10.152;2023-03-23T01:46:42;3.38;;;2.40;;
30303;SDS011;17112;48.636;10.152;2023-03-23T01:49:09;3.42;;;2.40;;
30303;SDS011;17112;48.636;10.152;2023-03-23T01:51:41;4.18;;;2.42;;
30303;SDS011;17112;48.636;10.152;2023-03-23T01:54:17;5.10;;;2.63;;
30303;SDS011;17112;48.636;10.152;2023-03-23T01:56:50;2.83;;;2.20;;
30303;SDS011;17112;48.636;10.152;2023-03-23T01:59:19;4.38;;;2.50;;
30303;SDS011;17112;48.636;10.152;2023-03-23T02:01:46;5.90;;;2.50;;
30303;SDS011;17112;48.636;10.152;2023-03-23T02:04:13;6.70;;;2.55;;
30303;SDS011;17112;48.636;10.152;2023-03-23T02:06:41;6.80;;;3.10;;
30303;SDS011;17112;48.636;10.152;2023-03-23T02:09:09;6.32;;;3.00;;
30303;SDS011;17112;48.636;10.152;2023-03-23T02:11:36;7.35;;;3.03;;
30303;SDS011;17112;48.636;10.152;2023-03-23T02:14:02;6.72;;;3.03;;
30303;SDS011;17112;48.636;10.152;2023-03-23T02:16:40;5.90;;;3.00;;
30303;SDS011;17112;48.636;10.152;2023-03-23T02:22:06;4.07;;;3.20;;
30303;SDS011;17112;48.636;10.152;2023-03-23T02:36:31;11.55;;;3.10;;
30303;SDS011;17112;48.636;10.152;2023-03-23T02:41:54;6.20;;;3.72;;
30303;SDS011;17112;48.636;10.152;2023-03-23T02:44:24;5.78;;;2.92;;
30303;SDS011;17112;48.636;10.152;2023-03-23T02:46:55;5.25;;;2.83;;
30303;SDS011;17112;48.636;10.152;2023-03-23T02:49:24;3.13;;;2.50;;
30303;SDS011;17112;48.636;10.152;2023-03-23T02:51:52;3.30;;;2.55;;
30303;SDS011;17112;48.636;10.152;2023-03-23T02:54:21;7.82;;;2.55;;
30303;SDS011;17112;48.636;10.152;2023-03-23T02:56:50;6.20;;;2.40;;
30303;SDS011;17112;48.636;10.152;2023-03-23T02:59:18;4.97;;;2.53;;
30303;SDS011;17112;48.636;10.152;2023-03-23T03:01:45;5.07;;;2.60;;
30303;SDS011;17112;48.636;10.152;2023-03-23T03:04:32;4.45;;;2.17;;
30303;SDS011;17112;48.636;10.152;2023-03-23T03:07:06;4.72;;;2.40;;
30303;SDS011;17112;48.636;10.152;2023-03-23T03:12:29;5.60;;;2.58;;
30303;SDS011;17112;48.636;10.152;2023-03-23T03:17:55;5.70;;;2.70;;
30303;SDS011;17112;48.636;10.152;2023-03-23T03:20:28;6.30;;;2.60;;
30303;SDS011;17112;48.636;10.152;2023-03-23T03:22:55;5.50;;;2.90;;
30303;SDS011;17112;48.636;10.152;2023-03-23T03:25:22;5.63;;;2.30;;
30303;SDS011;17112;48.636;10.152;2023-03-23T03:27:50;4.65;;;2.50;;
30303;SDS011;17112;48.636;10.152;2023-03-23T03:30:18;15.90;;;2.75;;
30303;SDS011;17112;48.636;10.152;2023-03-23T03:32:48;5.90;;;2.70;;
30303;SDS011;17112;48.636;10.152;2023-03-23T03:35:18;5.93;;;3.10;;
30303;SDS011;17112;48.636;10.152;2023-03-23T03:37:46;5.82;;;3.65;;
30303;SDS011;17112;48.636;10.152;2023-03-23T03:40:13;4.45;;;3.10;;
30303;SDS011;17112;48.636;10.152;2023-03-23T03:42:41;5.50;;;3.42;;
30303;SDS011;17112;48.636;10.152;2023-03-23T03:45:09;6.05;;;3.20;;
30303;SDS011;17112;48.636;10.152;2023-03-23T03:47:36;5.85;;;3.63;;
30303;SDS011;17112;48.636;10.152;2023-03-23T03:50:02;6.95;;;3.97;;
30303;SDS011;17112;48.636;10.152;2023-03-23T03:52:28;5.45;;;3.83;;
30303;SDS011;17112;48.636;10.152;2023-03-23T03:54:53;6.07;;;3.63;;
30303;SDS011;17112;48.636;10.152;2023-03-23T03:57:20;5.15;;;3.67;;
30303;SDS011;17112;48.636;10.152;2023-03-23T03:59:46;5.60;;;3.60;;
30303;SDS011;17112;48.636;10.152;2023-03-23T04:02:12;6.00;;;3.97;;
30303;SDS011;17112;48.636;10.152;2023-03-23T04:04:45;12.05;;;4.63;;
30303;SDS011;17112;48.636;10.152;2023-03-23T04:07:11;8.40;;;3.70;;
30303;SDS011;17112;48.636;10.152;2023-03-23T04:09:39;4.85;;;3.60;;
30303;SDS011;17112;48.636;10.152;2023-03-23T04:12:05;5.10;;;3.83;;
30303;SDS011;17112;48.636;10.152;2023-03-23T04:14:31;6.07;;;4.18;;
30303;SDS011;17112;48.636;10.152;2023-03-23T04:16:57;5.50;;;3.97;;
30303;SDS011;17112;48.636;10.152;2023-03-23T04:19:24;5.15;;;3.83;;
30303;SDS011;17112;48.636;10.152;2023-03-23T04:21:49;5.85;;;4.03;;
30303;SDS011;17112;48.636;10.152;2023-03-23T04:24:15;4.93;;;3.58;;
30303;SDS011;17112;48.636;10.152;2023-03-23T04:26:41;10.68;;;4.13;;
30303;SDS011;17112;48.636;10.152;2023-03-23T04:29:07;8.18;;;3.63;;
30303;SDS011;17112;48.636;10.152;2023-03-23T04:31:34;5.60;;;3.63;;
30303;SDS011;17112;48.636;10.152;2023-03-23T04:34:00;5.75;;;3.85;;
30303;SDS011;17112;48.636;10.152;2023-03-23T04:36:27;5.28;;;3.80;;
30303;SDS011;17112;48.636;10.152;2023-03-23T04:38:59;7.50;;;4.30;;
30303;SDS011;17112;48.636;10.152;2023-03-23T04:41:25;6.30;;;3.75;;
30303;SDS011;17112;48.636;10.152;2023-03-23T04:43:51;4.60;;;3.70;;
30303;SDS011;17112;48.636;10.152;2023-03-23T04:46:19;7.03;;;4.47;;
30303;SDS011;17112;48.636;10.152;2023-03-23T04:48:46;7.47;;;3.80;;
30303;SDS011;17112;48.636;10.152;2023-03-23T04:51:12;4.90;;;3.72;;
30303;SDS011;17112;48.636;10.152;2023-03-23T04:53:37;8.15;;;3.83;;
30303;SDS011;17112;48.636;10.152;2023-03-23T04:56:03;7.63;;;4.20;;
30303;SDS011;17112;48.636;10.152;2023-03-23T04:58:29;6.07;;;3.85;;
30303;SDS011;17112;48.636;10.152;2023-03-23T05:00:59;10.48;;;4.50;;
30303;SDS011;17112;48.636;10.152;2023-03-23T05:03:25;6.35;;;3.83;;
30303;SDS011;17112;48.636;10.152;2023-03-23T05:05:52;6.43;;;3.47;;
30303;SDS011;17112;48.636;10.152;2023-03-23T05:08:19;8.93;;;4.03;;
30303;SDS011;17112;48.636;10.152;2023-03-23T05:10:49;8.90;;;4.20;;
30303;SDS011;17112;48.636;10.152;2023-03-23T05:13:17;9.13;;;3.88;;
30303;SDS011;17112;48.636;10.152;2023-03-23T05:15:42;6.60;;;3.88;;
30303;SDS011;17112;48.636;10.152;2023-03-23T05:18:08;6.20;;;3.95;;
30303;SDS011;17112;48.636;10.152;2023-03-23T05:20:35;8.05;;;4.22;;
30303;SDS011;17112;48.636;10.152;2023-03-23T05:23:00;5.93;;;3.65;;
30303;SDS011;17112;48.636;10.152;2023-03-23T05:25:26;6.85;;;3.90;;
30303;SDS011;17112;48.636;10.152;2023-03-23T05:27:52;8.57;;;3.97;;
30303;SDS011;17112;48.636;10.152;2023-03-23T05:30:19;6.82;;;4.63;;
30303;SDS011;17112;48.636;10.152;2023-03-23T05:32:46;6.68;;;4.50;;
30303;SDS011;17112;48.636;10.152;2023-03-23T05:35:15;8.85;;;5.53;;
30303;SDS011;17112;48.636;10.152;2023-03-23T05:37:42;10.98;;;6.88;;
30303;SDS011;17112;48.636;10.152;2023-03-23T05:40:09;12.95;;;7.35;;
30303;SDS011;17112;48.636;10.152;2023-03-23T05:42:37;9.57;;;6.45;;
30303;SDS011;17112;48.636;10.152;2023-03-23T05:45:06;14.05;;;7.22;;
30303;SDS011;17112;48.636;10.152;2023-03-23T05:47:33;12.27;;;7.20;;
30303;SDS011;17112;48.636;10.152;2023-03-23T05:49:59;12.50;;;6.35;;
30303;SDS011;17112;48.636;10.152;2023-03-23T05:52:25;12.90;;;6.82;;
30303;SDS011;17112;48.636;10.152;2023-03-23T05:54:51;11.85;;;6.00;;
30303;SDS011;17112;48.636;10.152;2023-03-23T05:57:18;11.07;;;5.90;;
30303;SDS011;17112;48.636;10.152;2023-03-23T05:59:46;14.20;;;5.68;;
30303;SDS011;17112;48.636;10.152;2023-03-23T06:02:12;19.23;;;6.45;;
30303;SDS011;17112;48.636;10.152;2023-03-23T06:04:39;13.75;;;6.00;;
30303;SDS011;17112;48.636;10.152;2023-03-23T06:07:06;11.95;;;5.55;;
30303;SDS011;17112;48.636;10.152;2023-03-23T06:09:32;10.80;;;5.32;;
30303;SDS011;17112;48.636;10.152;2023-03-23T06:11:58;8.90;;;4.95;;
30303;SDS011;17112;48.636;10.152;2023-03-23T06:14:24;8.38;;;5.25;;
30303;SDS011;17112;48.636;10.152;2023-03-23T06:16:49;9.52;;;4.60;;
30303;SDS011;17112;48.636;10.152;2023-03-23T06:19:15;8.93;;;4.38;;
30303;SDS011;17112;48.636;10.152;2023-03-23T06:21:41;7.10;;;4.30;;
30303;SDS011;17112;48.636;10.152;2023-03-23T06:24:07;7.10;;;4.13;;
30303;SDS011;17112;48.636;10.152;2023-03-23T06:26:34;6.57;;;4.03;;
30303;SDS011;17112;48.636;10.152;2023-03-23T06:29:02;5.85;;;4.00;;
30303;SDS011;17112;48.636;10.152;2023-03-23T06:31:35;10.90;;;3.63;;
30303;SDS011;17112;48.636;10.152;2023-03-23T06:34:06;6.90;;;3.78;;
30303;SDS011;17112;48.636;10.152;2023-03-23T06:36:36;6.07;;;4.22;;
30303;SDS011;17112;48.636;10.152;2023-03-23T06:39:03;7.88;;;3.38;;
30303;SDS011;17112;48.636;10.152;2023-03-23T06:41:32;7.30;;;3.70;;
30303;SDS011;17112;48.636;10.152;2023-03-23T06:43:59;13.05;;;3.40;;
30303;SDS011;17112;48.636;10.152;2023-03-23T06:46:26;5.60;;;3.17;;
30303;SDS011;17112;48.636;10.152;2023-03-23T06:48:52;6.45;;;3.30;;
30303;SDS011;17112;48.636;10.152;2023-03-23T06:51:18;4.57;;;3.08;;
30303;SDS011;17112;48.636;10.152;2023-03-23T06:53:44;5.40;;;3.38;;
30303;SDS011;17112;48.636;10.152;2023-03-23T06:56:09;4.05;;;2.88;;
30303;SDS011;17112;48.636;10.152;2023-03-23T06:58:37;4.38;;;2.70;;
30303;SDS011;17112;48.636;10.152;2023-03-23T07:01:03;7.60;;;3.50;;
30303;SDS011;17112;48.636;10.152;2023-03-23T07:03:29;7.18;;;3.10;;
30303;SDS011;17112;48.636;10.152;2023-03-23T07:05:56;8.70;;;2.97;;
30303;SDS011;17112;48.636;10.152;2023-03-23T07:08:22;5.38;;;2.95;;
30303;SDS011;17112;48.636;10.152;2023-03-23T07:10:50;7.32;;;3.47;;
30303;SDS011;17112;48.636;10.152;2023-03-23T07:13:17;7.38;;;3.47;;
30303;SDS011;17112;48.636;10.152;2023-03-23T07:15:44;4.28;;;2.92;;
30303;SDS011;17112;48.636;10.152;2023-03-23T07:18:10;9.57;;;3.15;;
30303;SDS011;17112;48.636;10.152;2023-03-23T07:20:36;9.00;;;2.65;;
30303;SDS011;17112;48.636;10.152;2023-03-23T07:23:02;4.82;;;2.42;;
30303;SDS011;17112;48.636;10.152;2023-03-23T07:25:30;3.78;;;2.47;;
30303;SDS011;17112;48.636;10.152;2023-03-23T07:27:58;7.20;;;2.80;;
30303;SDS011;17112;48.636;10.152;2023-03-23T07:30:25;3.20;;;2.63;;
30303;SDS011;17112;48.636;10.152;2023-03-23T07:32:51;4.10;;;2.80;;
30303;SDS011;17112;48.636;10.152;2023-03-23T07:35:17;4.82;;;2.47;;
30303;SDS011;17112;48.636;10.152;2023-03-23T07:37:42;4.47;;;2.45;;
30303;SDS011;17112;48.636;10.152;2023-03-23T07:40:08;2.97;;;2.17;;
30303;SDS011;17112;48.636;10.152;2023-03-23T07:42:44;6.70;;;2.60;;
30303;SDS011;17112;48.636;10.152;2023-03-23T07:45:14;4.38;;;2.50;;
30303;SDS011;17112;48.636;10.152;2023-03-23T07:47:40;3.25;;;2.20;;
30303;SDS011;17112;48.636;10.152;2023-03-23T07:50:07;5.50;;;2.58;;
30303;SDS011;17112;48.636;10.152;2023-03-23T07:52:34;3.90;;;2.15;;
30303;SDS011;17112;48.636;10.152;2023-03-23T07:55:01;3.20;;;2.35;;
30303;SDS011;17112;48.636;10.152;2023-03-23T07:57:28;3.50;;;2.47;;
30303;SDS011;17112;48.636;10.152;2023-03-23T07:59:54;5.30;;;1.95;;
30303;SDS011;17112;48.636;10.152;2023-03-23T08:02:21;3.33;;;2.28;;
30303;SDS011;17112;48.636;10.152;2023-03-23T08:04:48;5.93;;;2.20;;
30303;SDS011;17112;48.636;10.152;2023-03-23T08:07:14;5.88;;;2.20;;
30303;SDS011;17112;48.636;10.152;2023-03-23T08:09:41;4.00;;;2.38;;
30303;SDS011;17112;48.636;10.152;2023-03-23T08:12:07;3.72;;;2.40;;
30303;SDS011;17112;48.636;10.152;2023-03-23T08:14:33;5.28;;;1.90;;
30303;SDS011;17112;48.636;10.152;2023-03-23T08:16:59;6.78;;;2.58;;
30303;SDS011;17112;48.636;10.152;2023-03-23T08:19:25;3.30;;;2.10;;
30303;SDS011;17112;48.636;10.152;2023-03-23T08:21:51;4.05;;;2.03;;
30303;SDS011;17112;48.636;10.152;2023-03-23T08:24:18;2.58;;;2.00;;
30303;SDS011;17112;48.636;10.152;2023-03-23T08:26:44;5.15;;;2.45;;
30303;SDS011;17112;48.636;10.152;2023-03-23T08:29:10;3.00;;;1.92;;
30303;SDS011;17112;48.636;10.152;2023-03-23T08:31:37;3.67;;;1.92;;
30303;SDS011;17112;48.636;10.152;2023-03-23T08:34:03;5.35;;;2.40;;
30303;SDS011;17112;48.636;10.152;2023-03-23T08:36:30;5.75;;;1.98;;
30303;SDS011;17112;48.636;10.152;2023-03-23T08:38:59;2.30;;;1.85;;
30303;SDS011;17112;48.636;10.152;2023-03-23T08:41:25;3.35;;;2.15;;
30303;SDS011;17112;48.636;10.152;2023-03-23T08:43:51;2.75;;;2.08;;
30303;SDS011;17112;48.636;10.152;2023-03-23T08:46:17;3.35;;;2.22;;
30303;SDS011;17112;48.636;10.152;2023-03-23T08:48:44;4.38;;;2.40;;
30303;SDS011;17112;48.636;10.152;2023-03-23T08:51:11;3.45;;;2.35;;
30303;SDS011;17112;48.636;10.152;2023-03-23T08:53:37;3.72;;;2.08;;
30303;SDS011;17112;48.636;10.152;2023-03-23T08:56:07;4.47;;;2.30;;
30303;SDS011;17112;48.636;10.152;2023-03-23T08:58:35;5.35;;;2.25;;
30303;SDS011;17112;48.636;10.152;2023-03-23T09:01:02;3.85;;;1.95;;
30303;SDS011;17112;48.636;10.152;2023-03-23T09:03:30;4.30;;;2.10;;
30303;SDS011;17112;48.636;10.152;2023-03-23T09:05:59;3.42;;;2.20;;
30303;SDS011;17112;48.636;10.152;2023-03-23T09:08:30;2.85;;;1.90;;
30303;SDS011;17112;48.636;10.152;2023-03-23T09:11:00;7.78;;;1.88;;
30303;SDS011;17112;48.636;10.152;2023-03-23T09:13:28;4.22;;;2.00;;
30303;SDS011;17112;48.636;10.152;2023-03-23T09:15:53;3.28;;;1.73;;
30303;SDS011;17112;48.636;10.152;2023-03-23T09:18:19;3.25;;;1.67;;
30303;SDS011;17112;48.636;10.152;2023-03-23T09:20:45;3.42;;;1.83;;
30303;SDS011;17112;48.636;10.152;2023-03-23T09:23:11;2.88;;;1.90;;
30303;SDS011;17112;48.636;10.152;2023-03-23T09:25:38;7.32;;;2.00;;
30303;SDS011;17112;48.636;10.152;2023-03-23T09:28:04;3.83;;;2.00;;
30303;SDS011;17112;48.636;10.152;2023-03-23T09:30:30;5.40;;;1.85;;
30303;SDS011;17112;48.636;10.152;2023-03-23T09:32:59;2.88;;;1.80;;
30303;SDS011;17112;48.636;10.152;2023-03-23T09:35:26;2.90;;;2.08;;
30303;SDS011;17112;48.636;10.152;2023-03-23T09:37:52;3.90;;;1.77;;
30303;SDS011;17112;48.636;10.152;2023-03-23T09:40:23;4.90;;;1.90;;
30303;SDS011;17112;48.636;10.152;2023-03-23T09:43:03;2.50;;;1.80;;
30303;SDS011;17112;48.636;10.152;2023-03-23T09:50:51;3.53;;;1.92;;
30303;SDS011;17112;48.636;10.152;2023-03-23T09:53:29;4.15;;;1.55;;
30303;SDS011;17112;48.636;10.152;2023-03-23T09:56:01;4.60;;;1.70;;
30303;SDS011;17112;48.636;10.152;2023-03-23T09:58:31;4.93;;;1.70;;
30303;SDS011;17112;48.636;10.152;2023-03-23T10:01:10;2.35;;;1.20;;
30303;SDS011;17112;48.636;10.152;2023-03-23T10:03:41;2.88;;;1.05;;
30303;SDS011;17112;48.636;10.152;2023-03-23T10:06:12;1.20;;;1.00;;
30303;SDS011;17112;48.636;10.152;2023-03-23T10:08:44;1.80;;;0.93;;
30303;SDS011;17112;48.636;10.152;2023-03-23T10:11:16;2.25;;;1.13;;
30303;SDS011;17112;48.636;10.152;2023-03-23T10:14:01;2.58;;;1.30;;
30303;SDS011;17112;48.636;10.152;2023-03-23T10:16:33;2.35;;;1.20;;
30303;SDS011;17112;48.636;10.152;2023-03-23T10:21:31;7.32;;;1.50;;
30303;SDS011;17112;48.636;10.152;2023-03-23T10:24:04;2.75;;;1.27;;
30303;SDS011;17112;48.636;10.152;2023-03-23T10:29:19;1.98;;;0.93;;
30303;SDS011;17112;48.636;10.152;2023-03-23T10:31:53;3.10;;;0.90;;
30303;SDS011;17112;48.636;10.152;2023-03-23T10:37:23;2.05;;;1.00;;
30303;SDS011;17112;48.636;10.152;2023-03-23T10:40:01;1.37;;;1.00;;
30303;SDS011;17112;48.636;10.152;2023-03-23T10:44:57;3.65;;;0.88;;
30303;SDS011;17112;48.636;10.152;2023-03-23T10:47:38;2.08;;;1.08;;
30303;SDS011;17112;48.636;10.152;2023-03-23T10:50:30;2.70;;;1.10;;
30303;SDS011;17112;48.636;10.152;2023-03-23T10:52:59;3.47;;;1.27;;
30303;SDS011;17112;48.636;10.152;2023-03-23T10:55:37;2.15;;;1.20;;
30303;SDS011;17112;48.636;10.152;2023-03-23T10:58:09;2.53;;;1.40;;
30303;SDS011;17112;48.636;10.152;2023-03-23T11:00:40;2.03;;;1.20;;
30303;SDS011;17112;48.636;10.152;2023-03-23T11:05:43;1.45;;;1.10;;
30303;SDS011;17112;48.636;10.152;2023-03-23T11:08:20;2.47;;;1.30;;
30303;SDS011;17112;48.636;10.152;2023-03-23T11:10:53;1.85;;;1.30;;
30303;SDS011;17112;48.636;10.152;2023-03-23T11:13:27;5.25;;;1.30;;
30303;SDS011;17112;48.636;10.152;2023-03-23T11:15:56;1.67;;;1.20;;
30303;SDS011;17112;48.636;10.152;2023-03-23T11:18:24;3.08;;;1.00;;
30303;SDS011;17112;48.636;10.152;2023-03-23T11:20:52;2.08;;;1.17;;
30303;SDS011;17112;48.636;10.152;2023-03-23T11:23:28;1.25;;;1.02;;
30303;SDS011;17112;48.636;10.152;2023-03-23T11:28:46;2.65;;;1.20;;
30303;SDS011;17112;48.636;10.152;2023-03-23T11:31:33;3.13;;;1.30;;
30303;SDS011;17112;48.636;10.152;2023-03-23T11:34:04;1.45;;;1.17;;
30303;SDS011;17112;48.636;10.152;2023-03-23T11:36:46;7.00;;;1.40;;
30303;SDS011;17112;48.636;10.152;2023-03-23T11:39:25;1.50;;;1.10;;
30303;SDS011;17112;48.636;10.152;2023-03-23T11:41:56;4.45;;;1.20;;
30303;SDS011;17112;48.636;10.152;2023-03-23T11:44:32;1.60;;;1.17;;
30303;SDS011;17112;48.636;10.152;2023-03-23T11:47:23;2.23;;;1.17;;
30303;SDS011;17112;48.636;10.152;2023-03-23T11:50:18;2.28;;;1.30;;
30303;SDS011;17112;48.636;10.152;2023-03-23T11:53:02;1.20;;;1.00;;
30303;SDS011;17112;48.636;10.152;2023-03-23T11:58:13;1.50;;;1.15;;
30303;SDS011;17112;48.636;10.152;2023-03-23T12:06:54;1.20;;;1.10;;
30303;SDS011;17112;48.636;10.152;2023-03-23T12:09:25;3.80;;;1.02;;
30303;SDS011;17112;48.636;10.152;2023-03-23T12:17:53;4.93;;;1.38;;
30303;SDS011;17112;48.636;10.152;2023-03-23T12:23:20;6.70;;;1.50;;
30303;SDS011;17112;48.636;10.152;2023-03-23T12:31:06;3.38;;;1.48;;
30303;SDS011;17112;48.636;10.152;2023-03-23T12:34:03;2.35;;;1.27;;
30303;SDS011;17112;48.636;10.152;2023-03-23T12:36:51;2.10;;;1.38;;
30303;SDS011;17112;48.636;10.152;2023-03-23T12:42:47;1.60;;;1.20;;
30303;SDS011;17112;48.636;10.152;2023-03-23T12:47:50;2.78;;;1.50;;
30303;SDS011;17112;48.636;10.152;2023-03-23T12:50:32;4.18;;;2.03;;
30303;SDS011;17112;48.636;10.152;2023-03-23T12:53:14;3.63;;;1.60;;
30303;SDS011;17112;48.636;10.152;2023-03-23T12:58:37;2.72;;;2.00;;
30303;SDS011;17112;48.636;10.152;2023-03-23T13:01:10;2.58;;;1.70;;
30303;SDS011;17112;48.636;10.152;2023-03-23T13:03:44;2.05;;;1.55;;
30303;SDS011;17112;48.636;10.152;2023-03-23T13:08:54;2.10;;;1.10;;
30303;SDS011;17112;48.636;10.152;2023-03-23T13:19:26;3.08;;;1.40;;
30303;SDS011;17112;48.636;10.152;2023-03-23T13:22:04;2.33;;;1.38;;
30303;SDS011;17112;48.636;10.152;2023-03-23T13:27:07;1.52;;;1.10;;
30303;SDS011;17112;48.636;10.152;2023-03-23T13:29:34;1.95;;;1.35;;
30303;SDS011;17112;48.636;10.152;2023-03-23T13:32:34;2.05;;;1.35;;
30303;SDS011;17112;48.636;10.152;2023-03-23T13:35:13;1.98;;;1.45;;
30303;SDS011;17112;48.636;10.152;2023-03-23T13:37:46;1.85;;;1.08;;
30303;SDS011;17112;48.636;10.152;2023-03-23T13:40:29;2.83;;;1.65;;
30303;SDS011;17112;48.636;10.152;2023-03-23T13:42:57;2.70;;;1.27;;
30303;SDS011;17112;48.636;10.152;2023-03-23T13:53:22;2.92;;;1.38;;
30303;SDS011;17112;48.636;10.152;2023-03-23T13:58:47;1.83;;;1.40;;
30303;SDS011;17112;48.636;10.152;2023-03-23T14:01:19;6.23;;;1.40;;
30303;SDS011;17112;48.636;10.152;2023-03-23T14:04:00;2.15;;;1.35;;
30303;SDS011;17112;48.636;10.152;2023-03-23T14:06:33;1.65;;;1.33;;
30303;SDS011;17112;48.636;10.152;2023-03-23T14:09:26;5.88;;;1.80;;
30303;SDS011;17112;48.636;10.152;2023-03-23T14:12:03;1.40;;;1.20;;
30303;SDS011;17112;48.636;10.152;2023-03-23T14:17:11;2.10;;;1.45;;
30303;SDS011;17112;48.636;10.152;2023-03-23T14:19:42;1.73;;;1.23;;
30303;SDS011;17112;48.636;10.152;2023-03-23T14:22:16;3.40;;;1.63;;
30303;SDS011;17112;48.636;10.152;2023-03-23T14:24:42;4.40;;;1.40;;
30303;SDS011;17112;48.636;10.152;2023-03-23T14:27:15;4.65;;;1.52;;
30303;SDS011;17112;48.636;10.152;2023-03-23T14:29:56;2.90;;;1.35;;
30303;SDS011;17112;48.636;10.152;2023-03-23T14:32:23;3.88;;;1.48;;
30303;SDS011;17112;48.636;10.152;2023-03-23T14:34:51;3.40;;;1.33;;
30303;SDS011;17112;48.636;10.152;2023-03-23T14:37:17;1.35;;;1.25;;
30303;SDS011;17112;48.636;10.152;2023-03-23T14:39:50;6.85;;;2.15;;
30303;SDS011;17112;48.636;10.152;2023-03-23T14:42:29;3.78;;;2.10;;
30303;SDS011;17112;48.636;10.152;2023-03-23T14:44:56;4.05;;;1.60;;
30303;SDS011;17112;48.636;10.152;2023-03-23T14:50:01;2.58;;;1.70;;
30303;SDS011;17112;48.636;10.152;2023-03-23T14:52:33;3.72;;;1.77;;
30303;SDS011;17112;48.636;10.152;2023-03-23T14:55:20;3.13;;;2.13;;
30303;SDS011;17112;48.636;10.152;2023-03-23T14:57:47;2.42;;;1.70;;
30303;SDS011;17112;48.636;10.152;2023-03-23T15:00:15;4.43;;;1.35;;
30303;SDS011;17112;48.636;10.152;2023-03-23T15:02:45;1.98;;;1.33;;
30303;SDS011;17112;48.636;10.152;2023-03-23T15:05:15;2.60;;;1.65;;
30303;SDS011;17112;48.636;10.152;2023-03-23T15:07:45;3.83;;;1.60;;
30303;SDS011;17112;48.636;10.152;2023-03-23T15:10:16;2.65;;;1.30;;
30303;SDS011;17112;48.636;10.152;2023-03-23T15:12:44;19.63;;;1.92;;
30303;SDS011;17112;48.636;10.152;2023-03-23T15:15:22;3.15;;;1.65;;
30303;SDS011;17112;48.636;10.152;2023-03-23T15:17:58;4.22;;;1.55;;
30303;SDS011;17112;48.636;10.152;2023-03-23T15:22:53;2.03;;;1.30;;
30303;SDS011;17112;48.636;10.152;2023-03-23T15:25:21;2.20;;;1.10;;
30303;SDS011;17112;48.636;10.152;2023-03-23T15:27:57;1.30;;;1.10;;
30303;SDS011;17112;48.636;10.152;2023-03-23T15:30:37;1.20;;;1.10;;
30303;SDS011;17112;48.636;10.152;2023-03-23T15:33:12;1.55;;;1.25;;
30303;SDS011;17112;48.636;10.152;2023-03-23T15:35:40;2.80;;;1.60;;
30303;SDS011;17112;48.636;10.152;2023-03-23T15:38:23;2.65;;;1.45;;
30303;SDS011;17112;48.636;10.152;2023-03-23T15:40:55;2.20;;;1.50;;
30303;SDS011;17112;48.636;10.152;2023-03-23T15:43:34;1.70;;;1.27;;
30303;SDS011;17112;48.636;10.152;2023-03-23T15:48:29;2.60;;;1.50;;
30303;SDS011;17112;48.636;10.152;2023-03-23T15:50:56;2.63;;;1.60;;
30303;SDS011;17112;48.636;10.152;2023-03-23T15:55:59;3.83;;;2.17;;
30303;SDS011;17112;48.636;10.152;2023-03-23T15:58:26;4.28;;;2.10;;
30303;SDS011;17112;48.636;10.152;2023-03-23T16:00:52;21.20;;;6.82;;
30303;SDS011;17112;48.636;10.152;2023-03-23T16:03:21;6.32;;;3.13;;
30303;SDS011;17112;48.636;10.152;2023-03-23T16:05:55;18.30;;;2.50;;
30303;SDS011;17112;48.636;10.152;2023-03-23T16:08:23;4.97;;;1.75;;
30303;SDS011;17112;48.636;10.152;2023-03-23T16:10:50;5.18;;;1.60;;
30303;SDS011;17112;48.636;10.152;2023-03-23T16:13:16;3.60;;;1.63;;
30303;SDS011;17112;48.636;10.152;2023-03-23T16:15:42;2.13;;;1.23;;
30303;SDS011;17112;48.636;10.152;2023-03-23T16:18:12;2.08;;;1.50;;
30303;SDS011;17112;48.636;10.152;2023-03-23T16:20:46;2.55;;;1.58;;
30303;SDS011;17112;48.636;10.152;2023-03-23T16:23:13;3.53;;;1.95;;
30303;SDS011;17112;48.636;10.152;2023-03-23T16:25:38;3.88;;;2.20;;
30303;SDS011;17112;48.636;10.152;2023-03-23T16:28:05;3.17;;;1.63;;
30303;SDS011;17112;48.636;10.152;2023-03-23T16:30:33;4.03;;;2.10;;
30303;SDS011;17112;48.636;10.152;2023-03-23T16:33:02;4.18;;;2.13;;
30303;SDS011;17112;48.636;10.152;2023-03-23T16:35:27;3.28;;;1.73;;
30303;SDS011;17112;48.636;10.152;2023-03-23T16:37:54;2.28;;;1.75;;
30303;SDS011;17112;48.636;10.152;2023-03-23T16:40:21;4.50;;;1.98;;
30303;SDS011;17112;48.636;10.152;2023-03-23T16:42:47;3.03;;;1.70;;